createdAt,value
2019-01-04T00:01:35.890Z,41.20
2019-01-04T00:04:16.551Z,34.83
2019-01-04T00:06:45.773Z,37.23
2019-01-04T00:09:15.079Z,42.23
2019-01-04T00:11:44.492Z,37.93
2019-01-04T00:14:13.930Z,35.17
2019-01-04T00:16:43.279Z,37.70
2019-01-04T00:19:12.714Z,35.73
2019-01-04T00:21:42.167Z,38.73
2019-01-04T00:24:11.453Z,27.83
2019-01-04T00:26:40.795Z,34.90
2019-01-04T00:29:10.130Z,37.77
2019-01-04T00:31:39.494Z,34.70
2019-01-04T00:34:08.868Z,39.97
2019-01-04T00:36:38.093Z,37.30
2019-01-04T00:39:07.873Z,33.10
2019-01-04T00:41:37.160Z,39.57
2019-01-04T00:44:06.478Z,32.57
2019-01-04T00:46:35.848Z,36.03
2019-01-04T00:49:05.234Z,34.23
2019-01-04T00:51:34.552Z,31.43
2019-01-04T00:54:03.865Z,33.93
2019-01-04T00:57:29.831Z,26.73
2019-01-04T01:00:35.570Z,27.60
2019-01-04T01:03:40.406Z,33.40
2019-01-04T01:07:07.183Z,29.37
2019-01-04T01:10:16.318Z,33.03
2019-01-04T01:13:21.497Z,30.50
2019-01-04T01:16:40.499Z,32.00
2019-01-04T01:19:49.886Z,38.50
2019-01-04T01:22:56.071Z,33.77
2019-01-04T01:26:01.109Z,37.93
2019-01-04T01:29:29.480Z,30.10
2019-01-04T01:32:34.578Z,31.23
2019-01-04T01:35:40.855Z,34.50
2019-01-04T01:38:46.012Z,26.90
2019-01-04T01:41:55.951Z,28.90
2019-01-04T01:44:49.923Z,35.97
2019-01-04T01:47:55.248Z,31.00
2019-01-04T01:51:16.954Z,34.83
2019-01-04T01:53:47.126Z,35.33
2019-01-04T01:56:16.569Z,33.90
2019-01-04T01:58:46.074Z,37.13
2019-01-04T02:01:15.401Z,30.60
2019-01-04T02:03:44.703Z,42.83
2019-01-04T02:06:13.959Z,35.40
2019-01-04T02:08:43.327Z,36.37
2019-01-04T02:11:12.619Z,27.60
2019-01-04T02:13:41.933Z,30.47
2019-01-04T02:16:11.173Z,36.37
2019-01-04T02:18:40.519Z,32.17
2019-01-04T02:21:09.834Z,32.13
2019-01-04T02:23:39.153Z,32.13
2019-01-04T02:26:08.474Z,32.87
2019-01-04T02:28:37.768Z,37.73
2019-01-04T02:31:07.036Z,48.27
2019-01-04T02:33:36.423Z,32.40
2019-01-04T02:36:05.711Z,34.27
2019-01-04T02:38:35.006Z,43.77
2019-01-04T02:41:04.420Z,37.40
2019-01-04T02:43:33.679Z,41.17
2019-01-04T02:46:03.030Z,40.57
2019-01-04T02:48:32.328Z,38.33
2019-01-04T02:51:01.608Z,30.00
2019-01-04T02:53:30.919Z,34.77
2019-01-04T02:56:00.217Z,34.57
2019-01-04T02:58:29.531Z,34.23
2019-01-04T03:00:58.810Z,41.97
2019-01-04T03:03:28.089Z,38.70
2019-01-04T03:05:57.378Z,41.83
2019-01-04T03:08:26.829Z,39.93
2019-01-04T03:10:56.123Z,40.23
2019-01-04T03:13:25.495Z,36.83
2019-01-04T03:15:54.841Z,38.40
2019-01-04T03:18:24.175Z,39.80
2019-01-04T03:20:53.426Z,49.53
2019-01-04T03:23:22.758Z,34.00
2019-01-04T03:25:52.294Z,35.70
2019-01-04T03:28:21.567Z,37.87
2019-01-04T03:30:50.925Z,48.20
2019-01-04T03:33:20.255Z,34.03
2019-01-04T03:35:49.605Z,43.43
2019-01-04T03:38:18.966Z,44.30
2019-01-04T03:40:48.236Z,42.27
2019-01-04T03:43:17.677Z,39.50
2019-01-04T03:45:47.048Z,34.43
2019-01-04T03:48:16.395Z,41.20
2019-01-04T03:50:45.750Z,55.60
2019-01-04T03:53:15.054Z,52.00
2019-01-04T03:55:44.315Z,38.80
2019-01-04T03:58:13.573Z,46.53
2019-01-04T04:00:42.864Z,44.20
2019-01-04T04:03:12.284Z,35.47
2019-01-04T04:05:41.606Z,44.23
2019-01-04T04:08:10.926Z,52.00
2019-01-04T04:10:40.281Z,41.13
2019-01-04T04:13:09.622Z,56.03
2019-01-04T04:15:39.132Z,41.00
2019-01-04T04:18:08.451Z,35.23
2019-01-04T04:20:37.821Z,45.60
2019-01-04T04:23:07.223Z,42.53
2019-01-04T04:25:36.569Z,40.27
2019-01-04T04:28:05.966Z,46.97
2019-01-04T04:30:35.276Z,46.77
2019-01-04T04:33:04.651Z,40.73
2019-01-04T04:35:33.952Z,42.37
2019-01-04T04:38:03.224Z,40.40
2019-01-04T04:40:32.509Z,42.23
2019-01-04T04:43:01.831Z,46.17
2019-01-04T04:45:31.123Z,55.77
2019-01-04T04:48:00.396Z,40.07
2019-01-04T04:50:29.683Z,44.20
2019-01-04T04:52:59.028Z,45.57
2019-01-04T04:55:28.334Z,50.47
2019-01-04T04:57:57.671Z,49.53
2019-01-04T05:00:26.963Z,46.63
2019-01-04T05:02:56.267Z,44.67
2019-01-04T05:05:25.600Z,37.80
2019-01-04T05:07:54.992Z,43.03
2019-01-04T05:10:24.334Z,52.43
2019-01-04T05:12:53.739Z,45.63
2019-01-04T05:15:23.022Z,44.13
2019-01-04T05:17:52.492Z,36.13
2019-01-04T05:20:22.091Z,33.00
2019-01-04T05:22:51.415Z,36.37
2019-01-04T05:25:21.476Z,36.43
2019-01-04T05:27:50.703Z,31.60
2019-01-04T05:30:20.102Z,37.10
2019-01-04T05:32:49.385Z,37.03
2019-01-04T05:35:18.657Z,35.00
2019-01-04T05:37:47.983Z,38.27
2019-01-04T05:40:17.272Z,30.90
2019-01-04T05:42:46.598Z,31.30
2019-01-04T05:45:15.918Z,34.27
2019-01-04T05:47:45.224Z,27.53
2019-01-04T05:50:14.535Z,35.63
2019-01-04T05:52:43.835Z,29.13
2019-01-04T05:55:13.172Z,30.37
2019-01-04T05:57:42.464Z,26.00
2019-01-04T06:00:11.863Z,28.20
2019-01-04T06:02:41.281Z,32.43
2019-01-04T06:05:10.594Z,38.90
2019-01-04T06:07:39.882Z,31.80
2019-01-04T06:10:09.247Z,32.27
2019-01-04T06:12:38.536Z,35.27
2019-01-04T06:15:07.869Z,32.73
2019-01-04T06:17:37.146Z,30.03
2019-01-04T06:20:06.851Z,34.43
2019-01-04T06:22:36.123Z,34.00
2019-01-04T06:25:05.606Z,25.10
2019-01-04T06:27:35.123Z,28.17
2019-01-04T06:30:05.185Z,24.73
2019-01-04T06:32:34.450Z,26.40
2019-01-04T06:35:03.816Z,27.90
2019-01-04T06:37:33.079Z,24.00
2019-01-04T06:40:02.394Z,29.30
2019-01-04T06:42:31.736Z,29.50
2019-01-04T06:45:01.002Z,32.43
2019-01-04T06:47:30.288Z,27.43
2019-01-04T06:49:59.666Z,24.97
2019-01-04T06:52:28.984Z,34.60
2019-01-04T06:55:33.566Z,34.67
2019-01-04T06:58:02.963Z,27.47
2019-01-04T07:00:32.290Z,27.13
2019-01-04T07:03:02.114Z,28.07
2019-01-04T07:05:31.811Z,23.03
2019-01-04T07:08:01.255Z,31.70
2019-01-04T07:10:30.622Z,30.40
2019-01-04T07:12:59.890Z,28.67
2019-01-04T07:15:31.665Z,29.93
2019-01-04T07:18:00.944Z,35.30
2019-01-04T07:20:30.374Z,33.80
2019-01-04T07:22:59.986Z,29.13
2019-01-04T07:25:29.325Z,37.37
2019-01-04T07:27:58.655Z,25.33
2019-01-04T07:30:28.070Z,29.30
2019-01-04T07:32:59.102Z,28.27
2019-01-04T07:35:28.441Z,25.80
2019-01-04T07:37:57.771Z,28.50
2019-01-04T07:40:27.054Z,36.10
2019-01-04T07:42:56.423Z,29.17
2019-01-04T07:45:25.984Z,28.77
2019-01-04T07:47:55.286Z,34.33
2019-01-04T07:50:24.591Z,26.90
2019-01-04T07:52:53.912Z,33.83
2019-01-04T07:55:23.283Z,31.00
2019-01-04T07:57:52.712Z,31.53
2019-01-04T08:00:22.110Z,31.17
2019-01-04T08:02:55.818Z,30.50
2019-01-04T08:05:26.763Z,32.83
2019-01-04T08:07:56.139Z,35.37
2019-01-04T08:10:25.659Z,32.80
2019-01-04T08:12:54.950Z,30.43
2019-01-04T08:15:24.234Z,31.47
2019-01-04T08:17:53.614Z,33.23
2019-01-04T08:20:23.041Z,43.17
2019-01-04T08:22:52.514Z,33.80
2019-01-04T08:25:21.804Z,37.23
2019-01-04T08:27:51.234Z,39.27
2019-01-04T08:30:21.130Z,47.00
2019-01-04T08:32:50.467Z,40.80
2019-01-04T08:35:19.750Z,37.20
2019-01-04T08:37:49.051Z,42.00
2019-01-04T08:40:18.381Z,35.57
2019-01-04T08:42:47.843Z,36.10
2019-01-04T08:45:17.206Z,39.83
2019-01-04T08:47:46.589Z,33.03
2019-01-04T08:50:17.509Z,36.17
2019-01-04T08:52:47.033Z,37.97
2019-01-04T08:55:28.984Z,34.03
2019-01-04T08:57:58.362Z,30.57
2019-01-04T09:00:27.836Z,33.00
2019-01-04T09:02:57.153Z,31.93
2019-01-04T09:05:26.676Z,30.07
2019-01-04T09:07:56.042Z,37.63
2019-01-04T09:10:25.417Z,28.17
2019-01-04T09:12:54.855Z,23.87
2019-01-04T09:15:24.204Z,23.50
2019-01-04T09:17:53.574Z,24.90
2019-01-04T09:20:22.844Z,20.97
2019-01-04T09:22:52.376Z,26.13
2019-01-04T09:25:21.745Z,25.80
2019-01-04T09:27:51.102Z,26.90
2019-01-04T09:30:20.602Z,24.70
2019-01-04T09:32:49.892Z,22.30
2019-01-04T09:35:19.226Z,21.10
2019-01-04T09:37:48.700Z,21.67
2019-01-04T09:40:18.003Z,26.57
2019-01-04T09:42:48.544Z,22.77
2019-01-04T09:45:17.843Z,21.73
2019-01-04T09:47:47.207Z,22.13
2019-01-04T09:50:16.488Z,17.53
2019-01-04T09:52:46.921Z,20.57
2019-01-04T09:55:16.389Z,20.47
2019-01-04T09:57:46.217Z,24.37
2019-01-04T10:00:16.122Z,19.43
2019-01-04T10:02:45.626Z,17.70
2019-01-04T10:05:15.156Z,19.00
2019-01-04T10:07:45.456Z,19.10
2019-01-04T10:10:15.291Z,13.73
2019-01-04T10:12:44.719Z,18.57
2019-01-04T10:15:17.044Z,19.30
2019-01-04T10:17:46.857Z,16.07
2019-01-04T10:20:16.263Z,14.43
2019-01-04T10:22:45.735Z,18.33
2019-01-04T10:25:15.238Z,22.23
2019-01-04T10:27:44.775Z,22.57
2019-01-04T10:30:29.982Z,18.90
2019-01-04T10:32:59.431Z,20.37
2019-01-04T10:35:28.753Z,23.73
2019-01-04T10:38:00.433Z,26.20
2019-01-04T10:40:30.213Z,21.23
2019-01-04T10:42:59.775Z,24.83
2019-01-04T10:45:29.179Z,22.53
2019-01-04T10:47:58.777Z,17.13
2019-01-04T10:50:28.152Z,19.00
2019-01-04T10:52:57.768Z,20.30
2019-01-04T10:55:28.199Z,24.10
2019-01-04T10:57:58.071Z,26.53
2019-01-04T11:00:27.660Z,16.87
2019-01-04T11:02:57.450Z,16.20
2019-01-04T11:05:26.843Z,22.53
2019-01-04T11:07:56.151Z,18.13
2019-01-04T11:10:25.446Z,22.90
2019-01-04T11:12:54.775Z,17.80
2019-01-04T11:15:24.094Z,26.40
2019-01-04T11:17:53.406Z,20.87
2019-01-04T11:20:58.719Z,19.67
2019-01-04T11:24:03.848Z,21.00
2019-01-04T11:26:46.713Z,23.57
2019-01-04T11:30:15.207Z,25.23
2019-01-04T11:33:30.872Z,15.70
2019-01-04T11:36:26.138Z,16.30
2019-01-04T11:39:25.147Z,19.00
2019-01-04T11:42:25.327Z,20.03
2019-01-04T11:45:28.442Z,16.70
2019-01-04T11:48:24.287Z,18.90
2019-01-04T11:51:35.657Z,18.97
2019-01-04T11:54:10.017Z,27.93
2019-01-04T11:56:39.387Z,24.80
2019-01-04T11:59:08.739Z,19.00
2019-01-04T12:01:38.142Z,18.87
2019-01-04T12:04:07.454Z,16.47
2019-01-04T12:06:36.815Z,18.20
2019-01-04T12:09:08.474Z,18.23
2019-01-04T12:11:40.865Z,15.90
2019-01-04T12:14:10.329Z,14.87
2019-01-04T12:16:39.823Z,14.83
2019-01-04T12:19:09.319Z,15.90
2019-01-04T12:21:39.159Z,21.93
2019-01-04T12:24:08.480Z,17.13
2019-01-04T12:26:37.903Z,15.73
2019-01-04T12:29:07.191Z,14.90
2019-01-04T12:31:36.487Z,15.00
2019-01-04T12:34:05.796Z,17.57
2019-01-04T12:36:35.615Z,18.00
2019-01-04T12:39:07.643Z,17.30
2019-01-04T12:41:37.011Z,20.70
2019-01-04T12:44:06.651Z,16.20
2019-01-04T12:46:35.937Z,12.90
2019-01-04T12:49:05.325Z,16.60
2019-01-04T12:51:34.941Z,14.77
2019-01-04T12:54:04.495Z,16.40
2019-01-04T12:56:34.157Z,19.10
2019-01-04T12:59:03.518Z,19.50
2019-01-04T13:01:32.954Z,12.33
2019-01-04T13:04:02.287Z,16.07
2019-01-04T13:06:31.635Z,15.47
2019-01-04T13:09:03.148Z,16.50
2019-01-04T13:11:32.549Z,17.20
2019-01-04T13:14:02.158Z,12.27
2019-01-04T13:16:31.588Z,18.40
2019-01-04T13:19:02.196Z,20.70
2019-01-04T13:21:32.169Z,14.93
2019-01-04T13:24:01.684Z,19.50
2019-01-04T13:26:31.039Z,14.33
2019-01-04T13:29:00.424Z,10.70
2019-01-04T13:31:29.845Z,12.63
2019-01-04T13:33:59.326Z,13.17
2019-01-04T13:36:29.079Z,15.53
2019-01-04T13:39:09.778Z,17.43
2019-01-04T13:41:39.384Z,13.73
2019-01-04T13:44:09.153Z,17.10
2019-01-04T13:46:39.970Z,16.00
2019-01-04T13:49:09.480Z,17.50
2019-01-04T13:51:38.851Z,11.23
2019-01-04T13:54:08.334Z,14.00
2019-01-04T13:56:37.896Z,12.87
2019-01-04T13:59:07.230Z,24.17
2019-01-04T14:01:37.305Z,17.27
2019-01-04T14:04:06.891Z,15.00
2019-01-04T14:06:36.774Z,19.00
2019-01-04T14:09:08.178Z,11.90
2019-01-04T14:11:37.481Z,14.23
2019-01-04T14:14:06.944Z,15.40
2019-01-04T14:16:36.289Z,17.40
2019-01-04T14:19:06.345Z,15.23
2019-01-04T14:21:36.051Z,17.20
2019-01-04T14:24:05.523Z,10.53
2019-01-04T14:26:34.833Z,14.70
2019-01-04T14:29:04.125Z,18.67
2019-01-04T14:31:34.216Z,10.63
2019-01-04T14:34:03.573Z,22.10
2019-01-04T14:36:32.864Z,16.87
2019-01-04T14:39:02.231Z,11.03
2019-01-04T14:41:31.592Z,17.70
2019-01-04T14:44:00.983Z,15.07
2019-01-04T14:46:32.850Z,18.60
2019-01-04T14:49:02.229Z,20.07
2019-01-04T14:51:31.508Z,18.17
2019-01-04T14:54:00.865Z,15.93
2019-01-04T14:56:30.219Z,13.50
2019-01-04T14:58:59.828Z,17.07
2019-01-04T15:01:29.142Z,15.00
2019-01-04T15:03:58.459Z,19.30
2019-01-04T15:06:27.775Z,23.50
2019-01-04T15:08:57.210Z,20.90
2019-01-04T15:11:26.494Z,16.60
2019-01-04T15:13:55.791Z,16.20
2019-01-04T15:16:25.071Z,13.80
2019-01-04T15:18:54.560Z,17.77
2019-01-04T15:21:24.578Z,18.43
2019-01-04T15:23:54.467Z,25.27
2019-01-04T15:26:24.573Z,23.20
2019-01-04T15:28:54.052Z,18.10
2019-01-04T15:31:23.775Z,15.70
2019-01-04T15:33:53.369Z,19.23
2019-01-04T15:36:22.850Z,18.10
2019-01-04T15:38:52.143Z,14.23
2019-01-04T15:41:21.668Z,15.33
2019-01-04T15:43:51.414Z,16.33
2019-01-04T15:46:21.548Z,21.60
2019-01-04T15:48:50.939Z,15.83
2019-01-04T15:51:20.506Z,14.40
2019-01-04T15:53:50.936Z,9.07
2019-01-04T15:56:22.064Z,14.10
2019-01-04T15:58:51.888Z,17.90
2019-01-04T16:01:21.813Z,18.33
2019-01-04T16:03:51.610Z,17.33
2019-01-04T16:06:21.418Z,16.70
2019-01-04T16:08:51.058Z,20.47
2019-01-04T16:11:27.881Z,20.83
2019-01-04T16:14:00.299Z,14.57
2019-01-04T16:16:29.643Z,19.30
2019-01-04T16:18:58.997Z,11.83
2019-01-04T16:21:37.036Z,23.10
2019-01-04T16:24:07.862Z,14.20
2019-01-04T16:26:37.946Z,13.50
2019-01-04T16:29:07.595Z,16.80
2019-01-04T16:31:37.114Z,9.53
2019-01-04T16:34:06.599Z,14.60
2019-01-04T16:36:38.698Z,16.30
2019-01-04T16:39:11.360Z,10.90
2019-01-04T16:41:40.911Z,13.50
2019-01-04T16:44:11.846Z,13.67
2019-01-04T16:46:41.242Z,11.07
2019-01-04T16:49:10.849Z,12.27
2019-01-04T16:51:40.290Z,22.00
2019-01-04T16:54:09.743Z,14.37
2019-01-04T16:56:39.220Z,13.07
2019-01-04T16:59:08.867Z,18.23
2019-01-04T17:01:38.738Z,13.20
2019-01-04T17:04:08.347Z,11.97
2019-01-04T17:06:39.975Z,12.17
2019-01-04T17:09:09.595Z,14.20
2019-01-04T17:11:39.173Z,13.70
2019-01-04T17:14:12.584Z,14.87
2019-01-04T17:16:42.082Z,12.43
2019-01-04T17:19:11.704Z,11.83
2019-01-04T17:21:41.282Z,12.83
2019-01-04T17:24:10.849Z,12.90
2019-01-04T17:26:40.338Z,14.10
2019-01-04T17:29:23.533Z,13.40
2019-01-04T17:31:53.210Z,17.23
2019-01-04T17:34:22.698Z,12.07
2019-01-04T17:36:57.768Z,16.50
2019-01-04T17:39:27.321Z,14.43
2019-01-04T17:41:56.831Z,18.63
2019-01-04T17:44:27.045Z,13.57
2019-01-04T17:46:56.659Z,13.30
2019-01-04T17:49:26.386Z,14.17
2019-01-04T17:51:55.981Z,13.20
2019-01-04T17:54:25.568Z,14.43
2019-01-04T17:56:55.195Z,17.23
2019-01-04T17:59:24.621Z,12.53
2019-01-04T18:01:54.268Z,13.00
2019-01-04T18:04:23.728Z,11.57
2019-01-04T18:06:53.278Z,15.27
2019-01-04T18:09:23.881Z,16.00
2019-01-04T18:11:53.364Z,10.47
2019-01-04T18:14:22.874Z,12.30
2019-01-04T18:16:52.459Z,13.13
2019-01-04T18:19:22.001Z,16.80
2019-01-04T18:21:51.540Z,11.43
2019-01-04T18:24:20.986Z,20.03
2019-01-04T18:26:50.500Z,14.10
2019-01-04T18:29:20.397Z,14.93
2019-01-04T18:31:49.934Z,13.30
2019-01-04T18:34:19.801Z,14.27
2019-01-04T18:36:49.278Z,16.77
2019-01-04T18:39:18.673Z,13.70
2019-01-04T18:41:48.042Z,13.37
2019-01-04T18:44:17.431Z,16.53
2019-01-04T18:46:47.225Z,14.60
2019-01-04T18:49:16.566Z,20.63
2019-01-04T18:51:45.827Z,17.30
2019-01-04T18:54:15.180Z,18.90
2019-01-04T18:56:44.523Z,17.20
2019-01-04T18:59:13.874Z,18.50
2019-01-04T19:01:43.242Z,18.40
2019-01-04T19:04:13.679Z,18.47
2019-01-04T19:06:42.993Z,23.60
2019-01-04T19:09:12.285Z,29.90
2019-01-04T19:11:41.717Z,21.87
2019-01-04T19:14:11.037Z,20.73
2019-01-04T19:16:40.917Z,24.83
2019-01-04T19:19:10.248Z,25.30
2019-01-04T19:21:39.602Z,23.13
2019-01-04T19:24:08.899Z,20.73
2019-01-04T19:26:38.214Z,22.87
2019-01-04T19:29:07.738Z,24.30
2019-01-04T19:31:37.017Z,18.93
2019-01-04T19:34:06.324Z,22.40
2019-01-04T19:36:35.636Z,25.17
2019-01-04T19:39:06.584Z,19.17
2019-01-04T19:41:35.878Z,24.70
2019-01-04T19:44:05.287Z,21.30
2019-01-04T19:46:34.919Z,19.77
2019-01-04T19:49:04.273Z,20.13
2019-01-04T19:51:33.724Z,17.00
2019-01-04T19:54:03.289Z,20.00
2019-01-04T19:56:32.676Z,19.57
2019-01-04T19:59:04.891Z,22.60
2019-01-04T20:01:34.198Z,18.27
2019-01-04T20:04:03.551Z,17.80
2019-01-04T20:07:16.643Z,23.00
2019-01-04T20:10:52.301Z,20.00
2019-01-04T20:14:48.802Z,16.53
2019-01-04T20:17:37.918Z,18.40
2019-01-04T20:20:39.096Z,20.60
2019-01-04T20:23:28.866Z,16.03
2019-01-04T20:26:26.272Z,13.50
2019-01-04T20:29:27.448Z,19.30
2019-01-04T20:32:18.778Z,16.10
2019-01-04T20:35:19.793Z,13.43
2019-01-04T20:38:07.958Z,16.97
2019-01-04T20:41:11.417Z,17.17
2019-01-04T20:44:08.852Z,16.70
2019-01-04T20:46:49.518Z,28.43
2019-01-04T20:49:40.234Z,24.03
2019-01-04T20:52:27.572Z,22.97
2019-01-04T20:55:15.937Z,23.37
2019-01-04T20:58:18.064Z,17.40
2019-01-04T21:01:09.516Z,22.40
2019-01-04T21:03:56.964Z,18.80
2019-01-04T21:06:37.898Z,21.63
2019-01-04T21:09:23.543Z,21.53
2019-01-04T21:12:18.391Z,22.80
2019-01-04T21:15:06.635Z,21.10
2019-01-04T21:17:54.603Z,22.60
2019-01-04T21:20:51.900Z,23.10
2019-01-04T21:23:44.640Z,20.03
2019-01-04T21:26:30.230Z,21.97
2019-01-04T21:29:17.008Z,24.33
2019-01-04T21:32:18.327Z,20.17
2019-01-04T21:35:07.025Z,23.40
2019-01-04T21:37:54.497Z,24.53
2019-01-04T21:40:52.716Z,24.43
2019-01-04T21:43:59.359Z,22.73
2019-01-04T21:46:49.073Z,28.47
2019-01-04T21:49:36.082Z,23.83
2019-01-04T21:52:42.599Z,25.17
2019-01-04T21:55:39.733Z,29.33
2019-01-04T21:58:26.849Z,19.30
2019-01-04T22:01:18.025Z,23.83
2019-01-04T22:04:09.151Z,19.10
2019-01-04T22:07:09.350Z,27.50
2019-01-04T22:10:04.911Z,25.27
2019-01-04T22:12:53.129Z,20.80
2019-01-04T22:15:54.842Z,26.50
2019-01-04T22:18:57.357Z,24.23
2019-01-04T22:21:45.834Z,26.70
2019-01-04T22:24:50.779Z,31.30
2019-01-04T22:27:34.981Z,24.63
2019-01-04T22:30:23.823Z,23.87
2019-01-04T22:33:10.835Z,19.07
2019-01-04T22:35:58.330Z,19.77
2019-01-04T22:38:52.407Z,24.10
2019-01-04T22:41:56.013Z,24.97
2019-01-04T22:44:53.369Z,23.30
2019-01-04T22:47:37.727Z,24.53
2019-01-04T22:50:39.629Z,21.17
2019-01-04T22:53:35.578Z,22.23
2019-01-04T22:56:23.007Z,23.70
2019-01-04T22:59:10.047Z,22.70
2019-01-04T23:02:01.668Z,24.53
2019-01-04T23:04:48.668Z,22.83
2019-01-04T23:07:47.289Z,26.73
2019-01-04T23:10:36.265Z,22.43
2019-01-04T23:13:18.599Z,20.57
2019-01-04T23:16:08.255Z,24.80
2019-01-04T23:18:55.159Z,24.40
2019-01-04T23:22:15.758Z,22.60
2019-01-04T23:25:07.208Z,19.87
2019-01-04T23:28:01.808Z,24.07
2019-01-04T23:30:48.764Z,25.00
2019-01-04T23:33:36.994Z,20.47
2019-01-04T23:36:24.129Z,23.97
2019-01-04T23:39:19.743Z,24.33
2019-01-04T23:42:10.788Z,28.80
2019-01-04T23:45:14.583Z,24.60
2019-01-04T23:48:01.602Z,21.87
2019-01-04T23:50:49.149Z,19.47
2019-01-04T23:53:43.990Z,19.00
2019-01-04T23:56:44.789Z,20.30
2019-01-04T23:59:39.123Z,20.67
